createdAt,value
2023-01-20T00:01:27.165Z,2.90
2023-01-20T00:03:56.641Z,2.90
2023-01-20T00:06:27.733Z,2.90
2023-01-20T00:09:15.823Z,3.00
2023-01-20T00:11:45.705Z,3.00
2023-01-20T00:14:14.313Z,3.00
2023-01-20T00:16:42.298Z,3.00
2023-01-20T00:19:12.391Z,3.00
2023-01-20T00:21:40.223Z,3.00
2023-01-20T00:24:08.497Z,3.00
2023-01-20T00:26:36.420Z,2.90
2023-01-20T00:29:05.654Z,2.90
2023-01-20T00:31:34.693Z,3.00
2023-01-20T00:34:03.097Z,3.00
2023-01-20T00:36:32.942Z,2.90
2023-01-20T00:39:02.415Z,2.90
2023-01-20T00:41:30.312Z,2.90
2023-01-20T00:43:58.242Z,2.90
2023-01-20T00:46:27.899Z,2.80
2023-01-20T00:48:56.097Z,2.80
2023-01-20T00:51:24.086Z,2.80
2023-01-20T00:53:51.925Z,2.90
2023-01-20T00:56:19.880Z,2.90
2023-01-20T00:58:47.862Z,2.90
2023-01-20T01:01:16.066Z,2.90
2023-01-20T01:03:45.391Z,2.90
2023-01-20T01:06:16.395Z,2.90
2023-01-20T01:08:45.156Z,2.80
2023-01-20T01:11:13.924Z,2.90
2023-01-20T01:13:42.190Z,2.90
2023-01-20T01:16:13.112Z,2.90
2023-01-20T01:18:41.517Z,2.90
2023-01-20T01:21:12.837Z,2.90
2023-01-20T01:23:40.823Z,2.80
2023-01-20T01:26:08.823Z,2.90
2023-01-20T01:28:36.827Z,2.90
2023-01-20T01:31:06.133Z,2.90
2023-01-20T01:33:34.939Z,2.90
2023-01-20T01:36:04.381Z,2.90
2023-01-20T01:38:33.728Z,2.90
2023-01-20T01:41:02.531Z,2.90
2023-01-20T01:43:32.510Z,2.80
2023-01-20T01:46:00.678Z,2.80
2023-01-20T01:48:32.499Z,2.90
2023-01-20T01:51:04.163Z,2.80
2023-01-20T01:53:40.285Z,2.80
2023-01-20T01:56:09.268Z,2.90
2023-01-20T01:58:39.726Z,2.90
2023-01-20T02:01:07.843Z,3.00
2023-01-20T02:03:42.830Z,2.90
2023-01-20T02:06:12.531Z,3.00
2023-01-20T02:08:43.195Z,3.00
2023-01-20T02:11:11.056Z,3.00
2023-01-20T02:13:39.359Z,3.00
2023-01-20T02:16:15.399Z,3.00
2023-01-20T02:18:55.168Z,3.10
2023-01-20T02:21:53.855Z,3.10
2023-01-20T02:25:04.584Z,3.10
2023-01-20T02:27:52.568Z,3.10
2023-01-20T02:30:47.737Z,3.10
2023-01-20T02:33:22.902Z,3.10
2023-01-20T02:35:54.353Z,3.00
2023-01-20T02:38:29.006Z,3.00
2023-01-20T02:41:03.155Z,3.00
2023-01-20T02:43:37.220Z,3.00
2023-01-20T02:46:11.144Z,3.10
2023-01-20T02:48:45.121Z,3.10
2023-01-20T02:51:18.389Z,3.10
2023-01-20T02:53:50.343Z,3.10
2023-01-20T02:56:20.285Z,3.10
2023-01-20T02:58:51.272Z,3.10
2023-01-20T03:01:26.310Z,3.10
2023-01-20T03:03:59.307Z,3.10
2023-01-20T03:06:31.534Z,3.10
2023-01-20T03:09:01.886Z,3.10
2023-01-20T03:11:36.158Z,3.10
2023-01-20T03:14:09.387Z,3.00
2023-01-20T03:16:37.741Z,3.00
2023-01-20T03:19:07.406Z,3.00
2023-01-20T03:21:36.171Z,2.90
2023-01-20T03:24:06.136Z,3.00
2023-01-20T03:26:34.635Z,3.00
2023-01-20T03:29:06.090Z,3.00
2023-01-20T03:31:37.586Z,3.00
2023-01-20T03:34:12.674Z,3.00
2023-01-20T03:36:42.260Z,3.00
2023-01-20T03:39:10.666Z,3.00
2023-01-20T03:41:45.867Z,3.00
2023-01-20T03:44:20.484Z,3.00
2023-01-20T03:46:53.946Z,2.90
2023-01-20T03:49:30.881Z,2.80
2023-01-20T03:52:04.834Z,2.80
2023-01-20T03:54:38.540Z,2.70
2023-01-20T03:57:12.147Z,2.60
2023-01-20T03:59:44.392Z,2.60
2023-01-20T04:02:13.243Z,2.60
2023-01-20T04:04:45.272Z,2.50
2023-01-20T04:07:19.718Z,2.50
2023-01-20T04:09:52.222Z,2.50
2023-01-20T04:12:20.373Z,2.50
2023-01-20T04:14:48.275Z,2.40
2023-01-20T04:17:16.727Z,2.40
2023-01-20T04:19:46.130Z,2.40
2023-01-20T04:22:18.965Z,2.40
2023-01-20T04:24:52.197Z,2.30
2023-01-20T04:27:20.168Z,2.30
2023-01-20T04:29:48.103Z,2.30
2023-01-20T04:32:18.388Z,2.30
2023-01-20T04:34:47.617Z,2.40
2023-01-20T04:37:15.632Z,2.40
2023-01-20T04:39:43.584Z,2.50
2023-01-20T04:42:11.613Z,2.50
2023-01-20T04:44:39.937Z,2.50
2023-01-20T04:47:07.934Z,2.60
2023-01-20T04:49:36.068Z,2.60
2023-01-20T04:52:05.623Z,2.60
2023-01-20T04:54:33.679Z,2.60
2023-01-20T04:57:01.534Z,2.60
2023-01-20T04:59:29.424Z,2.60
2023-01-20T05:01:57.390Z,2.60
2023-01-20T05:04:25.440Z,2.70
2023-01-20T05:06:53.312Z,2.70
2023-01-20T05:09:22.685Z,2.70
2023-01-20T05:11:50.577Z,2.70
2023-01-20T05:14:18.438Z,2.80
2023-01-20T05:16:47.060Z,2.80
2023-01-20T05:19:15.007Z,2.80
2023-01-20T05:21:43.209Z,2.90
2023-01-20T05:24:11.358Z,2.80
2023-01-20T05:26:40.615Z,2.90
2023-01-20T05:29:09.220Z,2.90
2023-01-20T05:31:38.690Z,2.90
2023-01-20T05:34:06.578Z,3.00
2023-01-20T05:36:34.479Z,2.90
2023-01-20T05:39:02.455Z,3.00
2023-01-20T05:41:30.369Z,3.00
2023-01-20T05:43:59.604Z,3.00
2023-01-20T05:46:27.481Z,2.90
2023-01-20T05:48:55.523Z,2.90
2023-01-20T05:51:23.769Z,3.00
2023-01-20T05:53:51.636Z,3.00
2023-01-20T05:56:19.449Z,3.00
2023-01-20T05:58:47.411Z,3.00
2023-01-20T06:01:16.711Z,3.00
2023-01-20T06:03:44.664Z,3.00
2023-01-20T06:06:15.756Z,2.90
2023-01-20T06:08:43.987Z,3.00
2023-01-20T06:11:11.922Z,2.90
2023-01-20T06:13:40.275Z,2.90
2023-01-20T06:16:08.684Z,2.90
2023-01-20T06:18:38.132Z,2.90
2023-01-20T06:21:06.425Z,3.00
2023-01-20T06:23:34.384Z,3.00
2023-01-20T06:26:03.820Z,3.00
2023-01-20T06:28:33.003Z,3.00
2023-01-20T06:31:02.351Z,3.00
2023-01-20T06:33:30.763Z,3.00
2023-01-20T06:36:00.602Z,3.00
2023-01-20T06:38:31.446Z,3.00
2023-01-20T06:41:00.420Z,3.00
2023-01-20T06:43:29.471Z,3.00
2023-01-20T06:46:00.895Z,3.00
2023-01-20T06:48:29.409Z,3.00
2023-01-20T06:51:03.326Z,3.00
2023-01-20T06:53:31.589Z,3.00
2023-01-20T06:56:01.319Z,3.00
2023-01-20T06:58:30.905Z,3.00
2023-01-20T07:01:00.107Z,3.00
2023-01-20T07:03:28.170Z,3.00
2023-01-20T07:05:59.641Z,3.00
2023-01-20T07:08:29.074Z,3.00
2023-01-20T07:10:57.495Z,3.00
2023-01-20T07:13:25.599Z,3.10
2023-01-20T07:15:54.202Z,3.10
2023-01-20T07:18:22.115Z,3.10
2023-01-20T07:20:55.266Z,3.10
2023-01-20T07:23:23.764Z,3.10
2023-01-20T07:26:00.564Z,3.10
2023-01-20T07:28:29.311Z,3.10
2023-01-20T07:30:57.630Z,3.10
2023-01-20T07:33:25.990Z,3.10
2023-01-20T07:35:55.277Z,3.10
2023-01-20T07:38:23.796Z,3.10
2023-01-20T07:40:52.137Z,3.00
2023-01-20T07:43:21.849Z,3.10
2023-01-20T07:45:50.072Z,3.10
2023-01-20T07:48:18.167Z,3.20
2023-01-20T07:50:46.258Z,3.10
2023-01-20T07:53:14.283Z,3.20
2023-01-20T07:55:42.409Z,3.30
2023-01-20T07:58:10.486Z,3.20
2023-01-20T08:00:39.886Z,3.20
2023-01-20T08:03:07.964Z,3.20
2023-01-20T08:05:36.103Z,3.20
2023-01-20T08:08:03.989Z,3.20
2023-01-20T08:10:32.152Z,3.20
2023-01-20T08:13:00.352Z,3.30
2023-01-20T08:15:28.356Z,3.30
2023-01-20T08:17:58.613Z,3.30
2023-01-20T08:20:26.904Z,3.30
2023-01-20T08:22:54.933Z,3.30
2023-01-20T08:25:23.527Z,3.30
2023-01-20T08:27:51.562Z,3.30
2023-01-20T08:30:20.239Z,3.40
2023-01-20T08:32:48.514Z,3.40
2023-01-20T08:35:17.998Z,3.40
2023-01-20T08:37:46.872Z,3.40
2023-01-20T08:40:15.393Z,3.40
2023-01-20T08:42:43.571Z,3.50
2023-01-20T08:45:12.506Z,3.50
2023-01-20T08:47:45.810Z,3.50
2023-01-20T08:50:15.625Z,3.60
2023-01-20T08:52:45.128Z,3.60
2023-01-20T08:55:13.475Z,3.60
2023-01-20T08:57:42.029Z,3.70
2023-01-20T09:00:14.565Z,3.60
2023-01-20T09:02:43.002Z,3.60
2023-01-20T09:05:12.071Z,3.60
2023-01-20T09:07:40.491Z,3.60
2023-01-20T09:10:11.345Z,3.60
2023-01-20T09:12:39.619Z,3.60
2023-01-20T09:15:09.227Z,3.70
2023-01-20T09:17:37.610Z,3.80
2023-01-20T09:20:06.394Z,3.90
2023-01-20T09:22:34.847Z,4.10
2023-01-20T09:25:03.556Z,4.10
2023-01-20T09:27:33.996Z,4.20
2023-01-20T09:30:02.283Z,4.30
2023-01-20T09:32:30.623Z,4.30
2023-01-20T09:34:58.975Z,4.50
2023-01-20T09:37:46.024Z,4.40
2023-01-20T09:40:36.926Z,4.40
2023-01-20T09:43:35.150Z,4.40
2023-01-20T09:46:10.266Z,4.70
2023-01-20T09:49:02.961Z,4.50
2023-01-20T09:51:56.867Z,4.40
2023-01-20T09:54:29.133Z,4.30
2023-01-20T09:57:01.063Z,4.20
2023-01-20T09:59:37.932Z,4.20
2023-01-20T10:02:10.201Z,4.50
2023-01-20T10:04:43.362Z,4.20
2023-01-20T10:07:16.001Z,4.20
2023-01-20T10:09:51.086Z,4.30
2023-01-20T10:12:24.021Z,4.30
2023-01-20T10:15:01.995Z,4.40
2023-01-20T10:17:33.529Z,4.60
2023-01-20T10:20:06.234Z,4.40
2023-01-20T10:22:41.644Z,4.70
2023-01-20T10:25:14.540Z,4.80
2023-01-20T10:27:51.442Z,5.00
2023-01-20T10:30:25.961Z,5.70
2023-01-20T10:32:59.754Z,4.80
2023-01-20T10:35:29.860Z,4.80
2023-01-20T10:37:59.099Z,4.80
2023-01-20T10:40:35.674Z,5.00
2023-01-20T10:43:12.624Z,4.70
2023-01-20T10:46:05.373Z,4.70
2023-01-20T10:48:54.694Z,4.80
2023-01-20T10:51:31.193Z,4.90
2023-01-20T10:54:07.152Z,5.00
2023-01-20T10:56:44.027Z,5.10
2023-01-20T10:59:16.964Z,5.30
2023-01-20T11:01:59.261Z,5.50
2023-01-20T11:04:36.113Z,5.70
2023-01-20T11:07:08.627Z,5.90
2023-01-20T11:09:38.822Z,6.00
2023-01-20T11:12:14.703Z,6.20
2023-01-20T11:14:43.560Z,6.30
2023-01-20T11:17:17.219Z,6.40
2023-01-20T11:19:53.252Z,7.70
2023-01-20T11:22:29.347Z,6.40
2023-01-20T11:24:59.813Z,6.40
2023-01-20T11:27:33.240Z,6.40
2023-01-20T11:30:05.480Z,6.30
2023-01-20T11:32:37.595Z,6.30
2023-01-20T11:35:22.869Z,6.20
2023-01-20T11:37:51.481Z,6.10
2023-01-20T11:40:23.258Z,6.50
2023-01-20T11:42:53.479Z,6.00
2023-01-20T11:45:32.742Z,6.10
2023-01-20T11:48:07.991Z,5.80
2023-01-20T11:50:41.007Z,5.80
2023-01-20T11:53:31.779Z,5.80
2023-01-20T11:56:02.150Z,5.90
2023-01-20T11:58:34.455Z,5.90
2023-01-20T12:01:05.812Z,6.00
2023-01-20T12:04:11.547Z,6.00
2023-01-20T12:06:49.032Z,6.10
2023-01-20T12:09:22.304Z,6.20
2023-01-20T12:12:11.596Z,6.20
2023-01-20T12:14:47.883Z,5.20
2023-01-20T12:17:34.078Z,6.30
2023-01-20T12:20:12.378Z,6.30
2023-01-20T12:22:47.597Z,6.30
2023-01-20T12:25:22.220Z,6.20
2023-01-20T12:27:54.313Z,6.10
2023-01-20T12:30:47.652Z,6.00
2023-01-20T12:33:22.662Z,5.90
2023-01-20T12:36:33.216Z,5.80
2023-01-20T12:39:25.056Z,5.70
2023-01-20T12:42:13.730Z,5.60
2023-01-20T12:44:47.463Z,5.60
2023-01-20T12:47:29.292Z,5.60
2023-01-20T12:50:15.144Z,5.60
2023-01-20T12:52:55.929Z,5.60
2023-01-20T12:55:33.358Z,5.50
2023-01-20T12:58:10.170Z,5.40
2023-01-20T13:01:04.188Z,5.30
2023-01-20T13:03:51.380Z,4.70
2023-01-20T13:06:53.999Z,5.40
2023-01-20T13:09:42.494Z,5.00
2023-01-20T13:12:38.567Z,5.10
2023-01-20T13:15:18.434Z,4.80
2023-01-20T13:18:06.506Z,4.80
2023-01-20T13:20:36.480Z,4.80
2023-01-20T13:23:07.004Z,5.30
2023-01-20T13:25:36.920Z,4.90
2023-01-20T13:28:07.972Z,4.90
2023-01-20T13:30:43.104Z,5.00
2023-01-20T13:33:27.529Z,5.00
2023-01-20T13:35:56.433Z,4.90
2023-01-20T13:38:27.933Z,4.90
2023-01-20T13:41:03.152Z,4.70
2023-01-20T13:43:48.013Z,4.70
2023-01-20T13:46:39.686Z,4.90
2023-01-20T13:49:36.639Z,4.50
2023-01-20T13:52:05.311Z,4.50
2023-01-20T13:54:43.775Z,4.40
2023-01-20T13:57:46.464Z,4.50
2023-01-20T14:00:19.883Z,4.50
2023-01-20T14:02:50.685Z,4.60
2023-01-20T14:05:32.295Z,4.60
2023-01-20T14:08:00.908Z,4.10
2023-01-20T14:10:30.474Z,4.70
2023-01-20T14:13:00.092Z,4.80
2023-01-20T14:15:38.263Z,5.20
2023-01-20T14:18:19.213Z,4.80
2023-01-20T14:21:03.874Z,4.80
2023-01-20T14:23:38.454Z,4.80
2023-01-20T14:26:13.259Z,4.80
2023-01-20T14:28:50.954Z,5.00
2023-01-20T14:31:35.454Z,4.80
2023-01-20T14:34:27.326Z,5.00
2023-01-20T14:36:58.273Z,4.80
2023-01-20T14:39:28.236Z,4.90
2023-01-20T14:41:57.708Z,4.80
2023-01-20T14:44:29.632Z,4.70
2023-01-20T14:46:59.572Z,5.20
2023-01-20T14:49:33.688Z,5.50
2023-01-20T14:52:03.077Z,4.70
2023-01-20T14:54:37.045Z,4.60
2023-01-20T14:57:21.467Z,5.00
2023-01-20T15:00:06.479Z,4.50
2023-01-20T15:02:36.767Z,5.40
2023-01-20T15:05:27.778Z,5.00
2023-01-20T15:08:18.830Z,4.30
2023-01-20T15:10:47.174Z,5.00
2023-01-20T15:13:26.385Z,4.20
2023-01-20T15:16:08.012Z,4.30
2023-01-20T15:18:36.333Z,4.20
2023-01-20T15:21:23.558Z,4.10
2023-01-20T15:23:52.884Z,4.10
2023-01-20T15:26:27.611Z,4.10
2023-01-20T15:28:56.578Z,4.30
2023-01-20T15:31:26.512Z,3.90
2023-01-20T15:33:54.825Z,3.90
2023-01-20T15:36:27.680Z,3.80
2023-01-20T15:38:56.792Z,3.60
2023-01-20T15:41:25.334Z,4.10
2023-01-20T15:43:54.100Z,3.60
2023-01-20T15:46:22.312Z,3.60
2023-01-20T15:48:51.932Z,3.50
2023-01-20T15:51:21.328Z,3.50
2023-01-20T15:53:50.073Z,3.80
2023-01-20T15:56:21.905Z,3.20
2023-01-20T15:58:51.482Z,3.70
2023-01-20T16:01:23.860Z,3.00
2023-01-20T16:03:55.053Z,2.90
2023-01-20T16:06:28.020Z,2.80
2023-01-20T16:08:56.705Z,2.80
2023-01-20T16:11:24.864Z,2.70
2023-01-20T16:13:53.737Z,2.70
2023-01-20T16:16:24.388Z,2.60
2023-01-20T16:18:54.242Z,2.60
2023-01-20T16:21:22.540Z,2.60
2023-01-20T16:23:50.687Z,2.60
2023-01-20T16:26:22.754Z,2.60
2023-01-20T16:28:51.498Z,2.60
2023-01-20T16:31:20.159Z,2.50
2023-01-20T16:33:48.568Z,2.60
2023-01-20T16:36:20.350Z,2.50
2023-01-20T16:38:49.950Z,2.50
2023-01-20T16:41:21.696Z,2.40
2023-01-20T16:43:50.573Z,2.30
2023-01-20T16:46:20.263Z,2.40
2023-01-20T16:48:48.841Z,2.30
2023-01-20T16:51:20.345Z,2.20
2023-01-20T16:53:48.810Z,2.20
2023-01-20T16:56:18.079Z,2.20
2023-01-20T16:58:48.734Z,2.10
2023-01-20T17:01:22.082Z,2.10
2023-01-20T17:03:51.687Z,2.10
2023-01-20T17:06:23.610Z,2.00
2023-01-20T17:08:53.817Z,2.00
2023-01-20T17:11:23.234Z,1.90
2023-01-20T17:13:51.649Z,2.00
2023-01-20T17:16:21.204Z,1.90
2023-01-20T17:18:50.601Z,1.90
2023-01-20T17:21:21.578Z,1.90
2023-01-20T17:23:52.450Z,1.90
2023-01-20T17:26:21.336Z,1.80
2023-01-20T17:28:49.623Z,1.80
2023-01-20T17:31:17.886Z,1.80
2023-01-20T17:33:47.407Z,1.80
2023-01-20T17:36:16.901Z,1.80
2023-01-20T17:38:46.665Z,1.70
2023-01-20T17:41:15.647Z,1.70
2023-01-20T17:43:46.245Z,1.80
2023-01-20T17:46:16.070Z,1.80
2023-01-20T17:48:44.809Z,1.80
2023-01-20T17:51:14.623Z,1.80
2023-01-20T17:53:43.481Z,1.80
2023-01-20T17:56:14.441Z,1.70
2023-01-20T17:58:43.482Z,1.70
2023-01-20T18:01:14.709Z,1.70
2023-01-20T18:03:44.356Z,1.70
2023-01-20T18:06:14.482Z,1.60
2023-01-20T18:08:43.237Z,1.60
2023-01-20T18:11:15.179Z,1.60
2023-01-20T18:13:46.358Z,1.70
2023-01-20T18:16:16.341Z,1.60
2023-01-20T18:18:45.487Z,1.60
2023-01-20T18:21:15.698Z,1.60
2023-01-20T18:23:45.085Z,1.60
2023-01-20T18:26:16.927Z,1.70
2023-01-20T18:28:47.885Z,1.60
2023-01-20T18:31:17.866Z,1.70
2023-01-20T18:33:48.188Z,1.60
2023-01-20T18:36:17.868Z,1.70
2023-01-20T18:38:50.951Z,1.50
2023-01-20T18:41:21.088Z,1.60
2023-01-20T18:43:49.397Z,1.50
2023-01-20T18:46:18.266Z,1.50
2023-01-20T18:48:48.977Z,1.50
2023-01-20T18:51:20.486Z,1.50
2023-01-20T18:53:54.913Z,1.50
2023-01-20T18:56:26.037Z,1.50
2023-01-20T18:58:55.482Z,1.50
2023-01-20T19:01:25.618Z,1.50
2023-01-20T19:03:55.361Z,1.50
2023-01-20T19:06:25.832Z,1.50
2023-01-20T19:08:54.222Z,1.40
2023-01-20T19:11:25.447Z,1.40
2023-01-20T19:13:54.462Z,1.40
2023-01-20T19:16:25.123Z,1.40
2023-01-20T19:18:55.189Z,1.40
2023-01-20T19:21:24.197Z,1.40
2023-01-20T19:23:53.670Z,1.40
2023-01-20T19:26:23.019Z,1.40
2023-01-20T19:28:58.340Z,1.40
2023-01-20T19:31:26.683Z,1.40
2023-01-20T19:33:54.878Z,1.40
2023-01-20T19:36:23.778Z,1.40
2023-01-20T19:38:52.848Z,1.40
2023-01-20T19:41:22.975Z,1.40
2023-01-20T19:43:57.221Z,1.40
2023-01-20T19:46:27.149Z,1.40
2023-01-20T19:48:57.469Z,1.30
2023-01-20T19:51:26.484Z,1.30
2023-01-20T19:53:57.949Z,1.20
2023-01-20T19:56:28.463Z,1.20
2023-01-20T19:59:01.777Z,1.10
2023-01-20T20:01:31.984Z,1.10
2023-01-20T20:04:00.536Z,1.00
2023-01-20T20:06:29.924Z,1.00
2023-01-20T20:09:00.274Z,1.10
2023-01-20T20:11:28.803Z,1.00
2023-01-20T20:13:59.949Z,1.00
2023-01-20T20:16:30.213Z,1.00
2023-01-20T20:18:58.737Z,1.00
2023-01-20T20:21:27.692Z,1.00
2023-01-20T20:23:57.881Z,0.90
2023-01-20T20:26:28.836Z,0.90
2023-01-20T20:28:59.767Z,0.90
2023-01-20T20:31:29.420Z,0.90
2023-01-20T20:33:58.509Z,0.90
2023-01-20T20:36:29.657Z,0.90
2023-01-20T20:38:58.830Z,0.80
2023-01-20T20:41:30.034Z,0.80
2023-01-20T20:44:00.616Z,0.70
2023-01-20T20:46:29.671Z,0.70
2023-01-20T20:48:59.735Z,0.70
2023-01-20T20:51:28.710Z,0.70
2023-01-20T20:53:57.996Z,0.70
2023-01-20T20:56:28.177Z,0.70
2023-01-20T20:59:02.067Z,0.60
2023-01-20T21:01:34.335Z,0.60
2023-01-20T21:04:03.406Z,0.60
2023-01-20T21:06:32.824Z,0.60
2023-01-20T21:09:01.291Z,0.50
2023-01-20T21:11:30.188Z,0.50
2023-01-20T21:13:58.871Z,0.50
2023-01-20T21:16:28.165Z,0.60
2023-01-20T21:18:59.409Z,0.50
2023-01-20T21:21:29.073Z,0.40
2023-01-20T21:23:59.690Z,0.60
2023-01-20T21:26:30.712Z,0.50
2023-01-20T21:29:01.655Z,0.50
2023-01-20T21:31:31.540Z,0.60
2023-01-20T21:34:01.709Z,0.40
2023-01-20T21:36:31.768Z,0.40
2023-01-20T21:39:00.587Z,0.40
2023-01-20T21:41:28.851Z,0.40
2023-01-20T21:44:14.423Z,0.40
2023-01-20T21:46:42.676Z,0.50
2023-01-20T21:49:29.759Z,0.40
2023-01-20T21:52:15.703Z,0.40
2023-01-20T21:54:45.401Z,0.40
2023-01-20T21:57:14.176Z,0.30
2023-01-20T21:59:42.968Z,0.30
2023-01-20T22:02:13.243Z,0.30
2023-01-20T22:04:43.076Z,0.30
2023-01-20T22:07:11.519Z,0.30
2023-01-20T22:09:43.300Z,0.30
2023-01-20T22:12:12.278Z,0.40
2023-01-20T22:14:40.593Z,0.30
2023-01-20T22:17:10.487Z,0.20
2023-01-20T22:19:38.931Z,0.20
2023-01-20T22:22:10.568Z,0.20
2023-01-20T22:24:38.847Z,0.30
2023-01-20T22:27:11.943Z,0.30
2023-01-20T22:29:40.067Z,0.20
2023-01-20T22:32:17.298Z,0.20
2023-01-20T22:34:45.770Z,0.20
2023-01-20T22:37:15.381Z,0.20
2023-01-20T22:39:43.576Z,0.20
2023-01-20T22:42:12.050Z,0.20
2023-01-20T22:44:40.323Z,0.20
2023-01-20T22:47:10.944Z,0.20
2023-01-20T22:49:39.188Z,0.10
2023-01-20T22:52:08.068Z,0.10
2023-01-20T22:54:37.653Z,0.10
2023-01-20T22:57:05.848Z,0.00
2023-01-20T22:59:33.997Z,0.10
2023-01-20T23:02:02.277Z,0.00
2023-01-20T23:04:30.349Z,-0.10
2023-01-20T23:06:58.440Z,-0.10
2023-01-20T23:09:26.787Z,-0.10
2023-01-20T23:11:56.233Z,-0.10
2023-01-20T23:14:56.871Z,-0.10
2023-01-20T23:17:25.039Z,-0.10
2023-01-20T23:19:53.174Z,-0.10
2023-01-20T23:22:21.338Z,-0.20
2023-01-20T23:24:49.445Z,-0.20
2023-01-20T23:27:18.837Z,-0.20
2023-01-20T23:29:49.136Z,-0.20
2023-01-20T23:32:17.278Z,-0.30
2023-01-20T23:34:45.359Z,-0.30
2023-01-20T23:37:14.141Z,-0.20
2023-01-20T23:39:42.243Z,-0.30
2023-01-20T23:42:10.483Z,-0.30
2023-01-20T23:44:40.022Z,-0.40
2023-01-20T23:47:10.465Z,-0.40
2023-01-20T23:49:41.067Z,-0.40
2023-01-20T23:52:09.326Z,-0.30
2023-01-20T23:54:37.427Z,-0.30
2023-01-20T23:57:05.702Z,-0.20
2023-01-20T23:59:33.848Z,-0.20
